Aviation Digital Data Service (ADDS)

Output produced by METARs form (0857 UTC 23 September 2018)
found at http://www.aviationweather.gov/metar/data/
 
EDDR 230850Z 22016KT 190V250 8000 -RA FEW003 BKN005 16/16 Q1013 NOSIG
TAF EDDR 230500Z 2306/2406 20005KT 9999 SCT010 BKN020 
     TEMPO 2306/2312 2500 RA BKN004 
     BECMG 2308/2311 22015G30KT 
     TEMPO 2314/2317 28020G50KT 2000 TSRA BKN008CB 
     BECMG 2317/2320 28010KT 
     BECMG 2320/2322 29005KT 
     TEMPO 2402/2406 4000 BR BKN005
       
ETAR 230756Z 23009G19KT 9999 BKN011 OVC019 17/17 A2989 RMK AO2A RAB34E43 SLP123 P0000 T01680168 $
TAF AMD ETAR 230835Z 2308/2408 23012G20KT 8000 -RA OVC015 QNH2988INS 
     BECMG 2309/2310 24012G20KT 8000 -RA BKN030 BKN150 QNH2978INS 
     BECMG 2311/2312 28015G25KT 9999 NSW BKN030 QNH2971INS 
     TEMPO 2313/2318 31030G40KT 8000 -TSRA BKN010 BKN030CB 510003 
     BECMG 2317/2318 31010G15KT 9999 BKN050 QNH2974INS 
     BECMG 2323/2324 31009KT 9999 SCT050 QNH2988INS TX19/2315Z TN07/2402Z